Terminal Aerodrome Forecast
Issued by NWS

Current Version | Previous Version | Text Only | Print | Product List | Glossary Off
Versions: 1 2 3 4 5 6 7 8 9 10 11 12 13 14 15 16 17 18 19 20 21 22

000
FTUS41 KILN 240300 AAA
TAFLCK
TAF AMD
KLCK 240355Z 2404/2424 35003KT P6SM BKN100
     FM240700 31005KT P6SM BKN020
     FM241500 27010G18KT P6SM BKN025
     FM242100 28012G20KT P6SM BKN025=

USA.gov is the U.S. government's official web portal to all federal, state and local government web resources and services.